createdAt,value
2022-12-27T00:01:29.699Z,1.85
2022-12-27T00:03:57.248Z,1.90
2022-12-27T00:06:26.373Z,1.40
2022-12-27T00:08:56.648Z,1.80
2022-12-27T00:11:26.076Z,2.47
2022-12-27T00:13:53.905Z,2.00
2022-12-27T00:16:22.260Z,1.67
2022-12-27T00:18:50.614Z,1.88
2022-12-27T00:21:18.858Z,2.75
2022-12-27T00:23:49.765Z,1.70
2022-12-27T00:26:20.435Z,2.40
2022-12-27T00:28:48.146Z,2.42
2022-12-27T00:31:16.880Z,2.08
2022-12-27T00:33:45.985Z,1.90
2022-12-27T00:36:15.474Z,1.90
2022-12-27T00:38:43.040Z,2.00
2022-12-27T00:41:10.897Z,2.27
2022-12-27T00:43:39.792Z,2.38
2022-12-27T00:46:07.623Z,2.05
2022-12-27T00:48:35.660Z,1.60
2022-12-27T00:51:05.021Z,1.97
2022-12-27T00:53:34.029Z,1.77
2022-12-27T00:56:01.839Z,2.70
2022-12-27T00:58:29.556Z,2.30
2022-12-27T01:01:07.433Z,2.10
2022-12-27T01:03:35.163Z,1.77
2022-12-27T01:06:06.172Z,2.00
2022-12-27T01:08:33.748Z,2.30
2022-12-27T01:11:01.349Z,1.88
2022-12-27T01:13:29.041Z,2.30
2022-12-27T01:15:58.433Z,2.10
2022-12-27T01:18:26.061Z,1.70
2022-12-27T01:20:53.628Z,1.92
2022-12-27T01:23:21.308Z,1.98
2022-12-27T01:25:48.803Z,1.55
2022-12-27T01:28:16.376Z,1.98
2022-12-27T01:30:43.883Z,1.83
2022-12-27T01:33:12.947Z,2.30
2022-12-27T01:35:40.501Z,2.75
2022-12-27T01:38:08.040Z,2.35
2022-12-27T01:40:36.924Z,1.80
2022-12-27T01:43:03.891Z,2.42
2022-12-27T01:45:34.199Z,2.25
2022-12-27T01:48:05.072Z,1.73
2022-12-27T01:50:37.566Z,2.00
2022-12-27T01:53:10.498Z,2.30
2022-12-27T01:55:44.120Z,2.13
2022-12-27T01:58:15.081Z,2.67
2022-12-27T02:00:45.614Z,2.27
2022-12-27T02:03:15.007Z,2.10
2022-12-27T02:05:43.970Z,2.42
2022-12-27T02:08:28.734Z,2.67
2022-12-27T02:10:57.354Z,2.20
2022-12-27T02:13:25.396Z,2.10
2022-12-27T02:15:52.922Z,2.65
2022-12-27T02:18:20.676Z,2.30
2022-12-27T02:21:11.523Z,2.85
2022-12-27T02:24:03.105Z,2.70
2022-12-27T02:26:47.909Z,2.42
2022-12-27T02:29:44.083Z,1.80
2022-12-27T02:32:16.558Z,1.98
2022-12-27T02:34:51.938Z,2.50
2022-12-27T02:37:21.062Z,1.83
2022-12-27T02:39:49.938Z,2.90
2022-12-27T02:42:36.051Z,2.90
2022-12-27T02:45:28.374Z,2.27
2022-12-27T02:48:13.560Z,2.05
2022-12-27T02:51:08.773Z,2.50
2022-12-27T02:53:42.330Z,2.40
2022-12-27T02:56:36.220Z,2.40
2022-12-27T02:59:14.955Z,2.20
2022-12-27T03:02:07.529Z,2.88
2022-12-27T03:04:47.537Z,2.80
2022-12-27T03:07:27.311Z,2.73
2022-12-27T03:10:29.145Z,2.15
2022-12-27T03:13:16.163Z,2.50
2022-12-27T03:15:59.228Z,2.50
2022-12-27T03:18:34.759Z,2.53
2022-12-27T03:21:21.339Z,3.30
2022-12-27T03:24:08.251Z,2.58
2022-12-27T03:26:37.309Z,2.53
2022-12-27T03:29:23.291Z,2.75
2022-12-27T03:32:11.534Z,2.70
2022-12-27T03:34:43.879Z,2.55
2022-12-27T03:37:32.475Z,2.83
2022-12-27T03:40:06.342Z,2.60
2022-12-27T03:42:57.709Z,2.70
2022-12-27T03:45:45.457Z,2.65
2022-12-27T03:48:14.379Z,2.75
2022-12-27T03:50:46.586Z,1.80
2022-12-27T03:53:17.142Z,1.35
2022-12-27T03:55:44.979Z,2.80
2022-12-27T03:58:12.599Z,2.38
2022-12-27T04:00:40.752Z,2.88
2022-12-27T04:03:08.573Z,1.83
2022-12-27T04:05:36.154Z,2.05
2022-12-27T04:08:23.458Z,2.90
2022-12-27T04:11:08.786Z,3.38
2022-12-27T04:13:54.301Z,3.10
2022-12-27T04:16:39.594Z,2.85
2022-12-27T04:19:24.790Z,3.03
2022-12-27T04:22:10.076Z,2.55
2022-12-27T04:24:56.724Z,2.90
2022-12-27T04:27:41.639Z,2.10
2022-12-27T04:30:28.169Z,2.58
2022-12-27T04:33:13.171Z,3.08
2022-12-27T04:35:40.879Z,3.37
2022-12-27T04:38:08.383Z,3.45
2022-12-27T04:40:54.889Z,3.67
2022-12-27T04:43:40.093Z,3.65
2022-12-27T04:46:34.925Z,3.40
2022-12-27T04:49:20.416Z,3.80
2022-12-27T04:52:02.054Z,3.17
2022-12-27T04:54:47.219Z,3.03
2022-12-27T04:57:16.147Z,3.47
2022-12-27T05:00:01.326Z,3.58
2022-12-27T05:02:28.980Z,3.60
2022-12-27T05:04:56.716Z,3.60
2022-12-27T05:07:42.033Z,3.65
2022-12-27T05:10:27.961Z,4.13
2022-12-27T05:13:14.611Z,3.92
2022-12-27T05:15:42.368Z,4.47
2022-12-27T05:18:10.077Z,4.10
2022-12-27T05:20:37.927Z,4.68
2022-12-27T05:23:23.036Z,4.93
2022-12-27T05:25:50.591Z,5.63
2022-12-27T05:28:19.487Z,4.30
2022-12-27T05:30:47.028Z,4.35
2022-12-27T05:33:14.650Z,4.82
2022-12-27T05:35:42.456Z,4.38
2022-12-27T05:38:09.986Z,4.70
2022-12-27T05:40:37.895Z,4.68
2022-12-27T05:43:05.689Z,4.63
2022-12-27T05:45:34.929Z,3.92
2022-12-27T05:48:02.521Z,4.22
2022-12-27T05:50:30.306Z,4.20
2022-12-27T05:52:58.050Z,4.72
2022-12-27T05:55:25.928Z,4.20
2022-12-27T05:57:53.479Z,4.05
2022-12-27T06:00:21.135Z,3.97
2022-12-27T06:02:50.373Z,4.63
2022-12-27T06:05:18.149Z,4.18
2022-12-27T06:07:45.643Z,4.68
2022-12-27T06:10:13.232Z,4.57
2022-12-27T06:12:40.881Z,3.70
2022-12-27T06:15:09.305Z,4.18
2022-12-27T06:17:36.855Z,3.30
2022-12-27T06:20:06.992Z,2.60
2022-12-27T06:22:34.661Z,4.68
2022-12-27T06:25:02.173Z,4.22
2022-12-27T06:27:29.866Z,3.53
2022-12-27T06:29:57.538Z,3.13
2022-12-27T06:32:25.066Z,4.53
2022-12-27T06:34:52.618Z,4.13
2022-12-27T06:37:22.052Z,3.65
2022-12-27T06:39:49.785Z,2.63
2022-12-27T06:42:17.557Z,4.10
2022-12-27T06:44:45.253Z,4.53
2022-12-27T06:47:12.819Z,4.60
2022-12-27T06:49:40.499Z,4.80
2022-12-27T06:52:07.980Z,3.78
2022-12-27T06:54:37.035Z,4.40
2022-12-27T06:57:04.667Z,3.90
2022-12-27T06:59:32.309Z,4.05
2022-12-27T07:02:00.417Z,3.22
2022-12-27T07:04:28.447Z,4.82
2022-12-27T07:06:56.109Z,5.30
2022-12-27T07:09:23.677Z,4.30
2022-12-27T07:11:53.958Z,4.43
2022-12-27T07:14:21.706Z,5.22
2022-12-27T07:16:50.503Z,5.30
2022-12-27T07:19:18.340Z,4.90
2022-12-27T07:21:46.031Z,4.63
2022-12-27T07:24:13.912Z,5.07
2022-12-27T07:26:41.525Z,4.53
2022-12-27T07:29:10.783Z,5.32
2022-12-27T07:31:38.380Z,5.13
2022-12-27T07:34:06.005Z,5.25
2022-12-27T07:36:36.086Z,4.83
2022-12-27T07:39:04.059Z,4.45
2022-12-27T07:41:31.637Z,5.05
2022-12-27T07:43:59.264Z,4.55
2022-12-27T07:46:28.810Z,4.30
2022-12-27T07:48:59.074Z,3.40
2022-12-27T07:51:27.476Z,3.70
2022-12-27T07:53:55.577Z,4.78
2022-12-27T07:56:26.425Z,4.53
2022-12-27T07:58:55.371Z,4.15
2022-12-27T08:01:24.895Z,3.80
2022-12-27T08:03:53.941Z,3.17
2022-12-27T08:06:24.252Z,3.00
2022-12-27T08:08:52.735Z,4.13
2022-12-27T08:11:20.565Z,3.67
2022-12-27T08:13:48.593Z,3.47
2022-12-27T08:16:18.867Z,3.55
2022-12-27T08:18:47.195Z,3.55
2022-12-27T08:21:16.338Z,3.00
2022-12-27T08:23:44.089Z,3.53
2022-12-27T08:26:12.120Z,3.00
2022-12-27T08:28:39.977Z,3.25
2022-12-27T08:31:08.508Z,3.28
2022-12-27T08:33:37.013Z,2.92
2022-12-27T08:36:28.679Z,3.00
2022-12-27T08:38:55.876Z,3.38
2022-12-27T08:41:24.175Z,3.10
2022-12-27T08:43:51.892Z,3.03
2022-12-27T08:46:19.930Z,3.13
2022-12-27T08:48:48.947Z,3.38
2022-12-27T08:51:26.279Z,3.63
2022-12-27T08:54:00.642Z,3.13
2022-12-27T08:56:28.567Z,3.20
2022-12-27T08:58:56.280Z,2.97
2022-12-27T09:01:25.452Z,2.92
2022-12-27T09:03:53.365Z,2.35
2022-12-27T09:06:23.318Z,2.70
2022-12-27T09:08:51.983Z,2.72
2022-12-27T09:11:23.389Z,2.50
2022-12-27T09:13:51.078Z,2.90
2022-12-27T09:16:20.044Z,2.77
2022-12-27T09:18:49.431Z,2.70
2022-12-27T09:21:18.040Z,2.97
2022-12-27T09:23:46.624Z,2.80
2022-12-27T09:26:15.907Z,2.92
2022-12-27T09:28:46.757Z,3.17
2022-12-27T09:31:18.291Z,3.13
2022-12-27T09:33:46.189Z,3.53
2022-12-27T09:36:15.693Z,3.80
2022-12-27T09:38:44.054Z,3.70
2022-12-27T09:41:37.697Z,4.47
2022-12-27T09:44:09.383Z,4.63
2022-12-27T09:46:41.411Z,4.95
2022-12-27T09:49:11.291Z,4.67
2022-12-27T09:51:45.277Z,5.43
2022-12-27T09:54:15.454Z,5.18
2022-12-27T09:57:17.902Z,5.20
2022-12-27T09:59:34.517Z,4.93
2022-12-27T10:02:02.425Z,5.70
2022-12-27T10:05:10.054Z,5.87
2022-12-27T10:07:28.427Z,5.90
2022-12-27T10:10:02.961Z,5.28
2022-12-27T10:12:53.658Z,5.30
2022-12-27T10:15:28.191Z,5.25
2022-12-27T10:18:01.517Z,5.38
2022-12-27T10:20:37.355Z,4.72
2022-12-27T10:23:06.979Z,4.03
2022-12-27T10:25:36.096Z,4.68
2022-12-27T10:28:13.222Z,3.85
2022-12-27T10:30:43.171Z,4.53
2022-12-27T10:33:18.411Z,6.35
2022-12-27T10:35:46.120Z,4.70
2022-12-27T10:38:13.871Z,4.33
2022-12-27T10:40:50.289Z,4.60
2022-12-27T10:43:19.879Z,4.13
2022-12-27T10:45:49.584Z,4.30
2022-12-27T10:48:20.227Z,4.57
2022-12-27T10:50:51.461Z,4.37
2022-12-27T10:53:40.372Z,3.33
2022-12-27T10:56:10.825Z,4.18
2022-12-27T10:58:41.468Z,4.20
2022-12-27T11:01:19.850Z,3.83
2022-12-27T11:03:47.691Z,3.03
2022-12-27T11:06:22.183Z,3.38
2022-12-27T11:08:50.647Z,3.60
2022-12-27T11:11:21.979Z,3.83
2022-12-27T11:13:50.262Z,3.70
2022-12-27T11:16:29.303Z,3.60
2022-12-27T11:18:58.265Z,3.90
2022-12-27T11:21:28.271Z,3.60
2022-12-27T11:23:58.106Z,3.60
2022-12-27T11:26:27.823Z,4.35
2022-12-27T11:28:57.270Z,3.30
2022-12-27T11:31:35.575Z,3.78
2022-12-27T11:34:07.489Z,3.37
2022-12-27T11:36:37.265Z,4.05
2022-12-27T11:39:07.519Z,3.85
2022-12-27T11:41:40.786Z,3.28
2022-12-27T11:44:16.218Z,3.95
2022-12-27T11:46:47.632Z,3.90
2022-12-27T11:49:24.523Z,3.73
2022-12-27T11:52:18.251Z,4.00
2022-12-27T11:55:03.937Z,3.35
2022-12-27T11:57:45.558Z,3.63
2022-12-27T12:00:17.080Z,3.90
2022-12-27T12:02:57.732Z,3.33
2022-12-27T12:05:42.110Z,3.47
2022-12-27T12:08:22.257Z,3.50
2022-12-27T12:10:54.640Z,3.60
2022-12-27T12:13:44.293Z,3.23
2022-12-27T12:16:44.321Z,3.15
2022-12-27T12:19:26.313Z,3.38
2022-12-27T12:22:05.261Z,2.87
2022-12-27T12:24:58.885Z,2.90
2022-12-27T12:27:42.681Z,2.50
2022-12-27T12:30:34.570Z,2.55
2022-12-27T12:33:15.564Z,2.80
2022-12-27T12:35:54.630Z,2.40
2022-12-27T12:38:23.354Z,2.88
2022-12-27T12:41:17.660Z,2.60
2022-12-27T12:43:59.660Z,2.50
2022-12-27T12:46:32.095Z,2.80
2022-12-27T12:49:22.016Z,2.60
2022-12-27T12:52:09.549Z,2.03
2022-12-27T12:54:55.141Z,2.40
2022-12-27T12:57:31.671Z,2.72
2022-12-27T13:00:27.687Z,2.60
2022-12-27T13:03:31.360Z,2.00
2022-12-27T13:06:04.765Z,2.17
2022-12-27T13:08:37.563Z,2.30
2022-12-27T13:11:29.731Z,3.03
2022-12-27T13:14:17.524Z,2.10
2022-12-27T13:16:51.796Z,2.20
2022-12-27T13:19:35.316Z,1.80
2022-12-27T13:22:08.895Z,1.80
2022-12-27T13:24:47.489Z,2.00
2022-12-27T13:27:21.493Z,2.40
2022-12-27T13:30:05.984Z,2.20
2022-12-27T13:32:45.235Z,2.03
2022-12-27T13:35:29.998Z,2.47
2022-12-27T13:38:09.693Z,2.13
2022-12-27T13:41:00.849Z,2.20
2022-12-27T13:43:43.092Z,1.75
2022-12-27T13:46:26.766Z,1.90
2022-12-27T13:49:06.412Z,2.10
2022-12-27T13:51:45.351Z,1.70
2022-12-27T13:54:39.145Z,1.70
2022-12-27T13:57:20.686Z,2.05
2022-12-27T13:59:56.156Z,1.90
2022-12-27T14:02:57.190Z,2.03
2022-12-27T14:05:54.637Z,1.42
2022-12-27T14:08:28.517Z,2.50
2022-12-27T14:11:00.686Z,2.17
2022-12-27T14:13:35.823Z,1.90
2022-12-27T14:16:25.844Z,1.80
2022-12-27T14:19:04.354Z,1.92
2022-12-27T14:21:50.365Z,2.13
2022-12-27T14:24:41.379Z,1.75
2022-12-27T14:27:40.083Z,1.70
2022-12-27T14:30:23.371Z,1.85
2022-12-27T14:33:39.777Z,2.23
2022-12-27T14:36:38.436Z,2.43
2022-12-27T14:39:52.432Z,2.00
2022-12-27T14:42:59.157Z,1.88
2022-12-27T14:45:58.181Z,2.22
2022-12-27T14:49:18.389Z,2.13
2022-12-27T14:52:34.848Z,2.35
2022-12-27T14:55:17.491Z,2.60
2022-12-27T14:57:51.724Z,2.33
2022-12-27T15:00:21.712Z,2.30
2022-12-27T15:03:10.315Z,3.50
2022-12-27T15:05:49.200Z,2.03
2022-12-27T15:08:33.984Z,2.30
2022-12-27T15:11:12.129Z,2.72
2022-12-27T15:13:51.985Z,2.80
2022-12-27T15:16:24.907Z,2.87
2022-12-27T15:19:08.903Z,2.45
2022-12-27T15:21:51.210Z,2.90
2022-12-27T15:24:28.681Z,2.42
2022-12-27T15:27:00.782Z,2.63
2022-12-27T15:29:36.901Z,3.15
2022-12-27T15:32:13.150Z,2.60
2022-12-27T15:35:00.307Z,2.70
2022-12-27T15:38:09.865Z,3.20
2022-12-27T15:40:44.416Z,2.80
2022-12-27T15:43:25.317Z,3.20
2022-12-27T15:46:05.395Z,3.17
2022-12-27T15:48:54.893Z,2.93
2022-12-27T15:51:31.505Z,2.85
2022-12-27T15:54:24.782Z,2.90
2022-12-27T15:57:13.808Z,2.75
2022-12-27T15:59:46.590Z,3.15
2022-12-27T16:02:26.561Z,2.73
2022-12-27T16:05:03.205Z,3.00
2022-12-27T16:07:42.255Z,2.97
2022-12-27T16:10:35.489Z,3.30
2022-12-27T16:13:19.901Z,3.53
2022-12-27T16:15:53.054Z,3.10
2022-12-27T16:18:43.810Z,3.10
2022-12-27T16:21:18.188Z,3.40
2022-12-27T16:23:53.253Z,3.17
2022-12-27T16:26:23.085Z,3.20
2022-12-27T16:28:56.974Z,3.00
2022-12-27T16:31:27.015Z,2.70
2022-12-27T16:33:56.319Z,2.97
2022-12-27T16:36:27.864Z,2.73
2022-12-27T16:39:06.632Z,2.78
2022-12-27T16:41:57.876Z,2.55
2022-12-27T16:44:38.402Z,3.08
2022-12-27T16:47:11.669Z,3.15
2022-12-27T16:50:02.516Z,2.85
2022-12-27T16:52:41.972Z,2.60
2022-12-27T16:55:24.067Z,2.73
2022-12-27T16:57:52.417Z,3.03
2022-12-27T17:00:35.634Z,3.00
2022-12-27T17:03:31.769Z,2.95
2022-12-27T17:09:31.125Z,3.10
2022-12-27T17:12:07.364Z,2.95
2022-12-27T17:14:36.997Z,2.70
2022-12-27T17:17:10.451Z,2.80
2022-12-27T17:19:40.554Z,2.40
2022-12-27T17:22:09.450Z,2.72
2022-12-27T17:24:37.336Z,2.50
2022-12-27T17:27:14.962Z,2.65
2022-12-27T17:30:05.585Z,3.05
2022-12-27T17:32:58.018Z,2.53
2022-12-27T17:35:31.760Z,2.30
2022-12-27T17:38:10.478Z,2.42
2022-12-27T17:40:42.851Z,2.35
2022-12-27T17:43:40.247Z,2.33
2022-12-27T17:46:23.149Z,2.83
2022-12-27T17:48:53.783Z,1.88
2022-12-27T17:51:24.599Z,2.30
2022-12-27T17:54:22.576Z,2.08
2022-12-27T17:57:15.343Z,2.10
2022-12-27T17:59:46.156Z,2.22
2022-12-27T18:02:16.770Z,2.13
2022-12-27T18:04:48.516Z,2.17
2022-12-27T18:07:16.979Z,2.20
2022-12-27T18:09:47.572Z,2.33
2022-12-27T18:12:19.726Z,1.60
2022-12-27T18:14:53.445Z,1.85
2022-12-27T18:17:29.063Z,1.45
2022-12-27T18:19:57.286Z,1.75
2022-12-27T18:22:25.186Z,2.03
2022-12-27T18:24:52.964Z,2.05
2022-12-27T18:27:25.093Z,1.57
2022-12-27T18:29:54.606Z,1.60
2022-12-27T18:32:23.735Z,2.15
2022-12-27T18:34:53.699Z,1.67
2022-12-27T18:37:37.884Z,1.58
2022-12-27T18:40:06.884Z,1.45
2022-12-27T18:42:36.037Z,1.83
2022-12-27T18:45:07.406Z,1.85
2022-12-27T18:47:39.103Z,1.98
2022-12-27T18:50:14.739Z,2.20
2022-12-27T18:52:43.056Z,1.50
2022-12-27T18:55:17.476Z,2.03
2022-12-27T18:57:46.795Z,1.98
2022-12-27T19:00:24.167Z,1.57
2022-12-27T19:02:53.546Z,1.55
2022-12-27T19:05:27.675Z,1.63
2022-12-27T19:08:01.594Z,1.60
2022-12-27T19:10:31.026Z,1.63
2022-12-27T19:12:59.081Z,1.67
2022-12-27T19:15:30.219Z,1.63
2022-12-27T19:17:59.915Z,2.20
2022-12-27T19:20:30.006Z,1.60
2022-12-27T19:22:58.931Z,1.52
2022-12-27T19:25:28.555Z,1.80
2022-12-27T19:28:05.213Z,1.65
2022-12-27T19:30:37.582Z,1.63
2022-12-27T19:33:10.097Z,1.75
2022-12-27T19:35:38.087Z,2.00
2022-12-27T19:38:06.069Z,2.05
2022-12-27T19:40:33.928Z,1.42
2022-12-27T19:43:01.898Z,1.80
2022-12-27T19:45:29.968Z,2.10
2022-12-27T19:47:59.396Z,1.80
2022-12-27T19:50:27.206Z,1.92
2022-12-27T19:52:55.173Z,2.17
2022-12-27T19:55:27.273Z,1.63
2022-12-27T19:57:56.237Z,2.00
2022-12-27T20:00:24.608Z,1.77
2022-12-27T20:02:53.079Z,1.95
2022-12-27T20:06:14.034Z,1.90
2022-12-27T20:08:20.773Z,1.88
2022-12-27T20:10:48.668Z,1.88
2022-12-27T20:13:16.520Z,2.15
2022-12-27T20:15:44.583Z,1.70
2022-12-27T20:18:13.001Z,2.00
2022-12-27T20:20:42.471Z,1.80
2022-12-27T20:23:10.416Z,1.77
2022-12-27T20:25:39.570Z,2.28
2022-12-27T20:28:07.837Z,1.98
2022-12-27T20:30:36.058Z,1.55
2022-12-27T20:33:03.922Z,2.38
2022-12-27T20:35:31.864Z,1.88
2022-12-27T20:38:04.363Z,1.90
2022-12-27T20:40:32.460Z,1.90
2022-12-27T20:43:00.239Z,1.73
2022-12-27T20:45:28.165Z,2.25
2022-12-27T20:47:56.918Z,1.80
2022-12-27T20:50:25.207Z,1.60
2022-12-27T20:52:53.847Z,2.50
2022-12-27T20:55:23.247Z,1.83
2022-12-27T20:57:51.095Z,1.95
2022-12-27T21:00:19.523Z,2.10
2022-12-27T21:02:47.825Z,1.73
2022-12-27T21:05:17.723Z,1.90
2022-12-27T21:07:45.654Z,1.80
2022-12-27T21:10:13.482Z,1.50
2022-12-27T21:12:42.883Z,1.70
2022-12-27T21:15:12.323Z,2.10
2022-12-27T21:17:40.132Z,2.15
2022-12-27T21:20:11.195Z,2.10
2022-12-27T21:22:39.187Z,2.08
2022-12-27T21:25:07.913Z,1.52
2022-12-27T21:27:35.869Z,1.83
2022-12-27T21:30:06.111Z,1.53
2022-12-27T21:32:34.182Z,1.50
2022-12-27T21:35:02.190Z,1.70
2022-12-27T21:37:30.197Z,1.83
2022-12-27T21:39:58.027Z,1.60
2022-12-27T21:42:25.830Z,1.58
2022-12-27T21:44:53.656Z,2.33
2022-12-27T21:47:23.419Z,1.70
2022-12-27T21:49:51.344Z,1.40
2022-12-27T21:52:19.406Z,1.83
2022-12-27T21:54:47.214Z,1.55
2022-12-27T21:57:14.986Z,1.70
2022-12-27T21:59:42.806Z,1.87
2022-12-27T22:02:10.784Z,1.88
2022-12-27T22:04:40.449Z,1.80
2022-12-27T22:07:08.319Z,1.70
2022-12-27T22:09:36.992Z,1.67
2022-12-27T22:12:05.228Z,1.60
2022-12-27T22:14:36.867Z,1.80
2022-12-27T22:17:05.071Z,1.70
2022-12-27T22:19:32.949Z,1.85
2022-12-27T22:22:02.544Z,1.92
2022-12-27T22:24:30.308Z,1.50
2022-12-27T22:26:58.273Z,2.28
2022-12-27T22:29:31.543Z,1.65
2022-12-27T22:32:02.798Z,1.30
2022-12-27T22:34:30.744Z,1.52
2022-12-27T22:36:58.498Z,1.80
2022-12-27T22:39:28.986Z,1.88
2022-12-27T22:41:57.040Z,1.30
2022-12-27T22:44:26.849Z,1.77
2022-12-27T22:49:42.657Z,1.30
2022-12-27T22:52:10.598Z,1.67
2022-12-27T22:55:04.100Z,1.65
2022-12-27T22:57:27.451Z,1.33
2022-12-27T22:59:55.281Z,2.00
2022-12-27T23:02:23.118Z,1.50
2022-12-27T23:04:51.209Z,1.50
2022-12-27T23:07:20.127Z,1.58
2022-12-27T23:09:49.675Z,1.35
2022-12-27T23:12:17.669Z,1.35
2022-12-27T23:14:45.484Z,1.65
2022-12-27T23:17:13.393Z,1.50
2022-12-27T23:19:41.137Z,1.48
2022-12-27T23:22:09.850Z,1.38
2022-12-27T23:24:37.801Z,1.67
2022-12-27T23:27:07.304Z,1.45
2022-12-27T23:29:34.941Z,1.63
2022-12-27T23:32:02.801Z,1.38
2022-12-27T23:34:30.955Z,1.20
2022-12-27T23:36:59.015Z,1.40
2022-12-27T23:39:27.407Z,1.20
2022-12-27T23:41:55.347Z,1.52
2022-12-27T23:44:34.113Z,1.07
2022-12-27T23:47:03.519Z,1.60
2022-12-27T23:49:31.363Z,1.40
2022-12-27T23:51:59.333Z,1.48
2022-12-27T23:54:27.133Z,1.43
2022-12-27T23:56:55.043Z,1.67
2022-12-27T23:59:24.805Z,1.25
